»·PEaware :: N61658 KFUL-L18

N61658 :: KFUL-L18

FLIGHT INFORMATION

Flight Status: Arrived
Operator: Privately registered:
United States
More flights under this callsign
Pilot: Ernie H. (21247)
Aircraft: CESSNA 172 SKYHAWK
(C172)
More flights by this aircraft type
Origin: KFUL Fullerton Mun
United States
Destination: L18 Fallbrook Community
United States
More flights between these airports :: More routes between these airports
Route: +
File this flight plan on PilotEdge
Remarks:
Altitude:
(Current/Filed)
0ft
Speed:
(Current/Filed)
0kts
Departed: 14-Aug-19 05:45 PM
Arrived: 14-Aug-19 06:27 PM
Distance/Time
Traveled:
48nm/0:42
Distance/Time
To Go:
Arrived

Flight Plot

Page will automatically refresh every two minutes.


Map Options




Map Legend


Flown Route
Filed Route
Departure Airport
Arrival Airport
Navaid (VOR, NDB)
Fix

Horizontal Profiles

Position Reports

Time Latitude Longitude Heading Altitude Ground
Speed
14-Aug-19 17:41 33.872528 -117.974985 74 93ft 0kts
14-Aug-19 17:42 33.872528 -117.974985 74 93ft 0kts
14-Aug-19 17:43 33.872932 -117.975121 258 93ft 15kts
14-Aug-19 17:44 33.870690 -117.993491 250 666ft 77kts
14-Aug-19 17:45 33.857689 -117.989395 81 1550ft 80kts
14-Aug-19 17:46 33.862471 -117.966097 75 2349ft 84kts
14-Aug-19 17:47 33.865966 -117.942603 81 3140ft 83kts
14-Aug-19 17:48 33.867298 -117.918387 95 3872ft 85kts
14-Aug-19 17:49 33.864910 -117.895018 100 4533ft 88kts
14-Aug-19 17:50 33.861270 -117.874440 104 5124ft 85kts
14-Aug-19 17:51 33.854648 -117.856600 116 5589ft 88kts
14-Aug-19 17:52 33.846265 -117.838503 123 6014ft 93kts
14-Aug-19 17:53 33.836951 -117.821111 124 6570ft 82kts
14-Aug-19 17:54 33.824289 -117.803231 129 6493ft 123kts
14-Aug-19 17:55 33.810874 -117.775352 119 5478ft 137kts
14-Aug-19 17:56 33.798295 -117.752926 133 5434ft 114kts
14-Aug-19 17:57 33.783961 -117.733112 128 5476ft 108kts
14-Aug-19 17:58 33.770002 -117.714379 130 5527ft 106kts
14-Aug-19 17:59 33.756777 -117.695349 124 5576ft 105kts
14-Aug-19 18:00 33.744401 -117.676403 130 5617ft 105kts
14-Aug-19 18:01 33.729182 -117.655296 131 5646ft 107kts
14-Aug-19 18:02 33.716004 -117.637543 131 5555ft 116kts
14-Aug-19 18:03 33.702535 -117.619141 130 5563ft 111kts
14-Aug-19 18:04 33.689163 -117.600479 130 5564ft 109kts
14-Aug-19 18:05 33.676086 -117.582234 130 5564ft 109kts
14-Aug-19 18:06 33.662977 -117.563955 130 5564ft 109kts
14-Aug-19 18:07 33.647557 -117.542376 130 5564ft 109kts
14-Aug-19 18:08 33.634571 -117.524289 130 5564ft 109kts
14-Aug-19 18:09 33.621433 -117.506000 130 5564ft 109kts
14-Aug-19 18:10 33.608140 -117.487500 130 5566ft 118kts
14-Aug-19 18:11 33.594651 -117.468746 130 5564ft 121kts
14-Aug-19 18:12 33.580845 -117.449567 130 5564ft 122kts
14-Aug-19 18:13 33.566383 -117.429486 130 5564ft 122kts
14-Aug-19 18:14 33.552427 -117.410121 130 5520ft 125kts
14-Aug-19 18:15 33.538400 -117.390624 130 5455ft 128kts
14-Aug-19 18:16 33.523588 -117.370666 131 5086ft 138kts
14-Aug-19 18:17 33.506800 -117.348264 132 4419ft 132kts
14-Aug-19 18:18 33.491600 -117.327959 132 4110ft 105kts
14-Aug-19 18:19 33.476354 -117.307587 132 3807ft 113kts
14-Aug-19 18:20 33.458973 -117.284402 132 3493ft 119kts
14-Aug-19 18:21 33.441513 -117.261134 132 3161ft 120kts
14-Aug-19 18:22 33.423560 -117.237242 132 2422ft 127kts
14-Aug-19 18:23 33.398811 -117.234629 197 1875ft 118kts
14-Aug-19 18:24 33.376574 -117.243951 192 1482ft 89kts
14-Aug-19 18:25 33.361996 -117.248036 195 847ft 62kts
14-Aug-19 18:26 33.354327 -117.250638 296 712ft 0kts
14-Aug-19 18:27 33.355698 -117.250270 358 712ft 10kts
14-Aug-19 18:28 33.356442 -117.251200 284 712ft 0kts
14-Aug-19 18:29 33.356441 -117.251199 285 712ft 0kts
14-Aug-19 18:30 33.356441 -117.251199 285 712ft 0kts
14-Aug-19 18:31 33.356441 -117.251199 285 712ft 0kts
14-Aug-19 18:32 33.356441 -117.251199 285 712ft 0kts
14-Aug-19 18:33 33.356441 -117.251199 285 712ft 0kts
14-Aug-19 18:34 33.356441 -117.251199 285 712ft 0kts
14-Aug-19 18:35 33.356441 -117.251199 285 712ft 0kts
14-Aug-19 18:36 33.356441 -117.251199 285 712ft 0kts
14-Aug-19 18:37 33.356441 -117.251199 285 712ft 0kts
14-Aug-19 18:38 33.356441 -117.251199 285 712ft 0kts
14-Aug-19 18:39 33.356441 -117.251199 285 712ft 0kts

Navigation Log

Ident Type
Flight plan parsing failed, navigation log unavailable